createdAt,value
2023-01-18T00:00:33.941Z,3.00
2023-01-18T00:03:03.763Z,3.00
2023-01-18T00:05:31.642Z,2.90
2023-01-18T00:08:00.907Z,3.00
2023-01-18T00:10:28.824Z,3.00
2023-01-18T00:12:57.175Z,2.90
2023-01-18T00:15:25.527Z,2.90
2023-01-18T00:17:53.789Z,2.90
2023-01-18T00:20:23.739Z,2.90
2023-01-18T00:22:52.676Z,2.90
2023-01-18T00:25:24.181Z,2.80
2023-01-18T00:27:54.087Z,2.90
2023-01-18T00:30:24.369Z,2.80
2023-01-18T00:32:55.755Z,2.80
2023-01-18T00:35:26.479Z,2.80
2023-01-18T00:37:55.251Z,2.70
2023-01-18T00:40:28.300Z,2.60
2023-01-18T00:43:13.953Z,2.50
2023-01-18T00:45:42.927Z,2.40
2023-01-18T00:48:11.926Z,2.30
2023-01-18T00:50:42.850Z,2.30
2023-01-18T00:53:10.825Z,2.20
2023-01-18T00:55:40.168Z,2.20
2023-01-18T00:58:08.150Z,2.30
2023-01-18T01:00:36.280Z,2.20
2023-01-18T01:03:04.187Z,2.20
2023-01-18T01:05:49.631Z,2.20
2023-01-18T01:08:18.216Z,2.20
2023-01-18T01:10:51.168Z,2.10
2023-01-18T01:13:40.051Z,2.10
2023-01-18T01:16:27.748Z,2.10
2023-01-18T01:19:24.895Z,2.10
2023-01-18T01:22:10.456Z,2.10
2023-01-18T01:24:55.882Z,2.10
2023-01-18T01:27:25.319Z,2.10
2023-01-18T01:29:54.250Z,2.10
2023-01-18T01:32:23.195Z,2.00
2023-01-18T01:34:51.019Z,2.00
2023-01-18T01:37:18.880Z,2.00
2023-01-18T01:39:46.793Z,2.00
2023-01-18T01:42:14.746Z,2.00
2023-01-18T01:44:52.079Z,2.00
2023-01-18T01:47:33.623Z,2.00
2023-01-18T01:50:08.172Z,1.90
2023-01-18T01:52:39.944Z,2.00
2023-01-18T01:55:14.580Z,2.10
2023-01-18T01:57:47.403Z,2.10
2023-01-18T02:00:19.670Z,2.10
2023-01-18T02:02:51.911Z,2.10
2023-01-18T02:05:20.423Z,2.20
2023-01-18T02:07:48.974Z,2.10
2023-01-18T02:10:17.512Z,2.10
2023-01-18T02:12:47.972Z,2.00
2023-01-18T02:15:19.953Z,2.00
2023-01-18T02:18:03.241Z,2.00
2023-01-18T02:21:06.871Z,2.00
2023-01-18T02:24:19.715Z,2.00
2023-01-18T02:27:06.961Z,2.00
2023-01-18T02:29:55.108Z,2.00
2023-01-18T02:32:33.262Z,2.00
2023-01-18T02:35:08.302Z,2.00
2023-01-18T02:37:44.814Z,1.90
2023-01-18T02:40:20.252Z,1.90
2023-01-18T02:43:07.288Z,1.90
2023-01-18T02:45:59.072Z,1.90
2023-01-18T02:48:33.756Z,1.90
2023-01-18T02:51:01.698Z,2.00
2023-01-18T02:53:30.061Z,2.00
2023-01-18T02:56:02.302Z,2.00
2023-01-18T02:58:35.462Z,2.10
2023-01-18T03:01:09.065Z,2.10
2023-01-18T03:03:37.261Z,2.10
2023-01-18T03:06:08.838Z,2.10
2023-01-18T03:08:41.377Z,2.10
2023-01-18T03:11:14.970Z,2.10
2023-01-18T03:13:59.883Z,2.10
2023-01-18T03:16:41.466Z,2.10
2023-01-18T03:19:37.288Z,2.20
2023-01-18T03:22:06.735Z,2.20
2023-01-18T03:24:41.023Z,2.20
2023-01-18T03:27:28.018Z,2.20
2023-01-18T03:30:14.209Z,2.20
2023-01-18T03:33:01.581Z,2.20
2023-01-18T03:35:31.706Z,2.20
2023-01-18T03:38:00.677Z,2.20
2023-01-18T03:40:30.553Z,2.10
2023-01-18T03:43:06.659Z,2.10
2023-01-18T03:45:37.473Z,2.10
2023-01-18T03:48:09.978Z,2.10
2023-01-18T03:50:43.028Z,2.20
2023-01-18T03:53:12.959Z,2.20
2023-01-18T03:55:45.628Z,2.20
2023-01-18T03:58:18.952Z,2.20
2023-01-18T04:00:47.017Z,2.10
2023-01-18T04:03:16.317Z,2.20
2023-01-18T04:05:44.302Z,2.10
2023-01-18T04:08:12.227Z,2.10
2023-01-18T04:10:40.102Z,2.10
2023-01-18T04:13:07.982Z,2.10
2023-01-18T04:15:35.808Z,2.10
2023-01-18T04:18:04.055Z,2.20
2023-01-18T04:20:33.453Z,2.20
2023-01-18T04:23:02.011Z,2.20
2023-01-18T04:25:30.072Z,2.20
2023-01-18T04:27:58.201Z,2.20
2023-01-18T04:30:28.454Z,2.20
2023-01-18T04:32:56.979Z,2.20
2023-01-18T04:35:25.289Z,2.20
2023-01-18T04:37:54.836Z,2.20
2023-01-18T04:40:25.747Z,2.10
2023-01-18T04:42:54.372Z,2.10
2023-01-18T04:45:22.413Z,2.10
2023-01-18T04:47:50.579Z,2.10
2023-01-18T04:50:18.724Z,2.10
2023-01-18T04:52:46.689Z,2.00
2023-01-18T04:55:16.257Z,2.00
2023-01-18T04:57:44.533Z,1.90
2023-01-18T05:00:15.407Z,1.90
2023-01-18T05:02:43.526Z,1.80
2023-01-18T05:05:11.884Z,1.80
2023-01-18T05:07:39.956Z,1.90
2023-01-18T05:10:08.665Z,1.80
2023-01-18T05:12:38.634Z,1.80
2023-01-18T05:15:07.940Z,1.70
2023-01-18T05:17:36.130Z,1.70
2023-01-18T05:20:06.324Z,1.70
2023-01-18T05:22:34.454Z,1.70
2023-01-18T05:25:06.377Z,1.70
2023-01-18T05:27:35.008Z,1.70
2023-01-18T05:30:06.961Z,1.80
2023-01-18T05:32:36.124Z,1.90
2023-01-18T05:35:04.269Z,1.90
2023-01-18T05:37:32.323Z,2.00
2023-01-18T05:40:05.366Z,2.00
2023-01-18T05:42:33.433Z,2.10
2023-01-18T05:45:01.544Z,2.10
2023-01-18T05:47:31.020Z,2.10
2023-01-18T05:50:00.442Z,2.10
2023-01-18T05:52:28.436Z,2.10
2023-01-18T05:54:56.465Z,2.00
2023-01-18T05:57:24.595Z,2.10
2023-01-18T05:59:52.680Z,2.10
2023-01-18T06:02:22.400Z,2.00
2023-01-18T06:04:51.827Z,2.00
2023-01-18T06:07:19.832Z,2.00
2023-01-18T06:09:48.058Z,2.10
2023-01-18T06:12:16.204Z,2.20
2023-01-18T06:14:44.294Z,2.20
2023-01-18T06:17:12.269Z,2.20
2023-01-18T06:19:40.227Z,2.20
2023-01-18T06:22:09.672Z,2.30
2023-01-18T06:24:39.728Z,2.30
2023-01-18T06:27:10.604Z,2.30
2023-01-18T06:29:38.657Z,2.20
2023-01-18T06:32:06.850Z,2.20
2023-01-18T06:34:36.722Z,2.20
2023-01-18T06:37:05.378Z,2.20
2023-01-18T06:39:35.158Z,2.20
2023-01-18T06:42:03.089Z,2.20
2023-01-18T06:44:30.961Z,2.20
2023-01-18T06:46:58.913Z,2.20
2023-01-18T06:49:27.137Z,2.20
2023-01-18T06:51:57.537Z,2.00
2023-01-18T06:54:27.818Z,2.00
2023-01-18T06:56:57.095Z,2.00
2023-01-18T06:59:25.005Z,2.10
2023-01-18T07:01:54.556Z,2.10
2023-01-18T07:04:22.621Z,1.90
2023-01-18T07:06:50.543Z,2.00
2023-01-18T07:09:18.515Z,2.00
2023-01-18T07:11:46.856Z,2.00
2023-01-18T07:14:16.269Z,2.00
2023-01-18T07:16:44.497Z,2.00
2023-01-18T07:19:12.612Z,2.00
2023-01-18T07:21:40.771Z,2.00
2023-01-18T07:24:09.176Z,2.00
2023-01-18T07:26:37.386Z,2.00
2023-01-18T07:29:05.543Z,2.00
2023-01-18T07:31:35.025Z,2.00
2023-01-18T07:34:03.142Z,2.00
2023-01-18T07:36:31.311Z,2.10
2023-01-18T07:39:01.240Z,2.10
2023-01-18T07:41:30.983Z,2.10
2023-01-18T07:43:59.390Z,2.20
2023-01-18T07:46:27.508Z,2.20
2023-01-18T07:48:58.579Z,2.20
2023-01-18T07:51:26.503Z,2.20
2023-01-18T07:53:55.482Z,2.20
2023-01-18T07:56:25.211Z,2.20
2023-01-18T07:58:53.734Z,2.20
2023-01-18T08:01:23.561Z,2.20
2023-01-18T08:03:53.566Z,2.20
2023-01-18T08:06:25.726Z,2.20
2023-01-18T08:08:55.377Z,2.30
2023-01-18T08:11:23.265Z,2.20
2023-01-18T08:13:52.617Z,2.20
2023-01-18T08:16:20.911Z,2.30
2023-01-18T08:18:50.518Z,2.20
2023-01-18T08:21:18.458Z,2.20
2023-01-18T08:23:47.696Z,2.10
2023-01-18T08:26:18.457Z,2.20
2023-01-18T08:28:46.449Z,2.20
2023-01-18T08:31:19.090Z,2.20
2023-01-18T08:33:48.598Z,2.20
2023-01-18T08:36:19.039Z,2.20
2023-01-18T08:38:51.238Z,2.20
2023-01-18T08:41:19.294Z,2.20
2023-01-18T08:43:50.847Z,2.20
2023-01-18T08:46:19.507Z,2.30
2023-01-18T08:48:50.483Z,2.30
2023-01-18T08:51:19.060Z,2.30
2023-01-18T08:53:47.514Z,2.40
2023-01-18T08:56:19.484Z,2.40
2023-01-18T08:58:52.086Z,2.40
2023-01-18T09:01:20.244Z,2.40
2023-01-18T09:03:52.797Z,2.50
2023-01-18T09:06:20.511Z,2.50
2023-01-18T09:08:48.788Z,2.50
2023-01-18T09:11:18.811Z,2.60
2023-01-18T09:14:00.186Z,2.50
2023-01-18T09:16:29.523Z,2.60
2023-01-18T09:18:58.365Z,2.70
2023-01-18T09:21:28.045Z,2.70
2023-01-18T09:23:56.211Z,2.70
2023-01-18T09:26:25.508Z,2.70
2023-01-18T09:28:55.427Z,2.70
2023-01-18T09:31:25.028Z,2.70
2023-01-18T09:33:54.276Z,2.70
2023-01-18T09:36:26.516Z,2.70
2023-01-18T09:38:54.715Z,2.80
2023-01-18T09:41:36.963Z,3.00
2023-01-18T09:44:09.666Z,2.90
2023-01-18T09:46:43.472Z,2.90
2023-01-18T09:49:19.247Z,2.90
2023-01-18T09:51:54.532Z,2.90
2023-01-18T09:54:36.869Z,3.00
2023-01-18T09:57:19.000Z,3.00
2023-01-18T09:59:54.491Z,3.00
2023-01-18T10:02:25.284Z,3.10
2023-01-18T10:04:57.829Z,3.10
2023-01-18T10:07:26.941Z,3.20
2023-01-18T10:09:57.650Z,3.30
2023-01-18T10:12:33.658Z,3.40
2023-01-18T10:15:07.760Z,3.50
2023-01-18T10:17:39.559Z,3.50
2023-01-18T10:20:16.078Z,3.50
2023-01-18T10:22:52.508Z,3.50
2023-01-18T10:25:26.464Z,3.70
2023-01-18T10:28:26.183Z,3.90
2023-01-18T10:31:06.220Z,3.90
2023-01-18T10:33:38.349Z,3.80
2023-01-18T10:39:33.451Z,3.90
2023-01-18T10:45:25.972Z,4.20
2023-01-18T10:47:56.647Z,4.20
2023-01-18T10:50:35.830Z,4.40
2023-01-18T10:53:22.971Z,4.50
2023-01-18T10:55:57.233Z,4.50
2023-01-18T10:58:28.700Z,4.80
2023-01-18T11:01:02.390Z,5.00
2023-01-18T11:03:40.160Z,5.30
2023-01-18T11:06:09.179Z,5.30
2023-01-18T11:08:37.352Z,5.40
2023-01-18T11:11:07.442Z,5.30
2023-01-18T11:13:42.550Z,5.50
2023-01-18T11:16:19.773Z,5.80
2023-01-18T11:19:05.934Z,6.00
2023-01-18T11:21:46.287Z,5.90
2023-01-18T11:24:17.517Z,5.90
2023-01-18T11:26:57.392Z,5.80
2023-01-18T11:29:29.654Z,5.90
2023-01-18T11:32:05.215Z,5.90
2023-01-18T11:34:36.185Z,6.00
2023-01-18T11:37:26.630Z,6.00
2023-01-18T11:39:57.059Z,6.20
2023-01-18T11:42:30.202Z,6.60
2023-01-18T11:45:22.552Z,6.80
2023-01-18T11:48:02.739Z,6.90
2023-01-18T11:50:37.462Z,7.10
2023-01-18T11:53:17.841Z,7.30
2023-01-18T11:55:55.922Z,7.30
2023-01-18T11:58:28.291Z,7.20
2023-01-18T12:01:08.516Z,6.80
2023-01-18T12:03:50.469Z,6.50
2023-01-18T12:06:27.155Z,6.20
2023-01-18T12:09:14.594Z,6.30
2023-01-18T12:11:50.140Z,6.30
2023-01-18T12:14:32.504Z,5.80
2023-01-18T12:17:13.905Z,5.90
2023-01-18T12:20:04.813Z,6.40
2023-01-18T12:23:11.988Z,6.80
2023-01-18T12:26:12.295Z,7.50
2023-01-18T12:28:56.207Z,8.40
2023-01-18T12:31:34.067Z,9.50
2023-01-18T12:34:12.519Z,10.20
2023-01-18T12:36:58.217Z,10.50
2023-01-18T12:39:42.892Z,11.50
2023-01-18T12:42:20.144Z,11.80
2023-01-18T12:45:00.777Z,11.50
2023-01-18T12:47:36.702Z,12.10
2023-01-18T12:50:13.841Z,12.80
2023-01-18T12:52:49.866Z,13.10
2023-01-18T12:55:21.482Z,13.70
2023-01-18T12:57:52.527Z,14.10
2023-01-18T13:00:25.771Z,14.80
2023-01-18T13:02:58.067Z,14.80
2023-01-18T13:05:35.346Z,14.50
2023-01-18T13:08:11.733Z,14.20
2023-01-18T13:10:40.019Z,14.10
2023-01-18T13:13:13.058Z,13.30
2023-01-18T13:15:46.236Z,12.80
2023-01-18T13:18:21.667Z,12.30
2023-01-18T13:21:12.618Z,9.90
2023-01-18T13:23:54.270Z,8.40
2023-01-18T13:26:28.625Z,8.00
2023-01-18T13:29:22.884Z,7.40
2023-01-18T13:31:51.424Z,6.90
2023-01-18T13:34:31.609Z,6.00
2023-01-18T13:37:14.830Z,5.70
2023-01-18T13:39:48.948Z,5.70
2023-01-18T13:42:26.938Z,5.70
2023-01-18T13:45:18.047Z,5.50
2023-01-18T13:47:58.103Z,5.50
2023-01-18T13:50:52.219Z,5.40
2023-01-18T13:53:25.471Z,5.30
2023-01-18T13:56:23.787Z,5.10
2023-01-18T13:59:00.687Z,5.00
2023-01-18T14:01:33.529Z,4.90
2023-01-18T14:04:13.504Z,5.10
2023-01-18T14:06:45.441Z,5.20
2023-01-18T14:09:18.368Z,5.20
2023-01-18T14:11:56.961Z,5.20
2023-01-18T14:14:29.294Z,5.20
2023-01-18T14:17:11.020Z,5.20
2023-01-18T14:20:05.567Z,5.10
2023-01-18T14:22:56.625Z,5.10
2023-01-18T14:25:41.997Z,5.00
2023-01-18T14:28:15.731Z,4.90
2023-01-18T14:30:46.733Z,5.00
2023-01-18T14:33:18.923Z,4.80
2023-01-18T14:35:54.770Z,4.70
2023-01-18T14:38:23.083Z,4.60
2023-01-18T14:40:53.724Z,4.60
2023-01-18T14:43:29.531Z,4.60
2023-01-18T14:46:01.403Z,4.70
2023-01-18T14:48:34.094Z,4.70
2023-01-18T14:51:04.116Z,4.70
2023-01-18T14:53:35.183Z,4.60
2023-01-18T14:56:06.014Z,4.60
2023-01-18T14:58:39.052Z,4.60
2023-01-18T15:01:24.208Z,4.60
2023-01-18T15:03:54.835Z,4.60
2023-01-18T15:06:35.257Z,4.50
2023-01-18T15:09:05.158Z,4.40
2023-01-18T15:11:35.565Z,4.30
2023-01-18T15:14:10.047Z,4.30
2023-01-18T15:16:38.183Z,4.30
2023-01-18T15:19:18.688Z,4.30
2023-01-18T15:21:47.178Z,4.30
2023-01-18T15:24:18.187Z,4.30
2023-01-18T15:26:47.870Z,4.20
2023-01-18T15:29:19.068Z,4.20
2023-01-18T15:31:49.122Z,4.20
2023-01-18T15:34:19.552Z,4.10
2023-01-18T15:36:47.817Z,4.10
2023-01-18T15:39:15.982Z,4.00
2023-01-18T15:41:45.195Z,3.90
2023-01-18T15:44:35.333Z,3.90
2023-01-18T15:47:14.454Z,3.90
2023-01-18T15:49:45.622Z,4.00
2023-01-18T15:52:13.673Z,3.80
2023-01-18T15:54:41.652Z,3.80
2023-01-18T15:57:14.621Z,3.70
2023-01-18T15:59:44.008Z,3.80
2023-01-18T16:02:19.009Z,3.70
2023-01-18T16:04:47.648Z,3.60
2023-01-18T16:07:38.781Z,3.70
2023-01-18T16:10:19.451Z,3.70
2023-01-18T16:12:48.024Z,3.70
2023-01-18T16:15:28.863Z,3.50
2023-01-18T16:18:03.039Z,3.50
2023-01-18T16:20:33.288Z,3.50
2023-01-18T16:23:09.651Z,3.40
2023-01-18T16:25:38.834Z,3.30
2023-01-18T16:28:06.901Z,3.20
2023-01-18T16:31:04.640Z,3.10
2023-01-18T16:33:34.775Z,2.90
2023-01-18T16:45:00.417Z,2.30
2023-01-18T16:47:28.790Z,2.20
2023-01-18T16:50:20.564Z,2.10
2023-01-18T16:52:59.356Z,2.10
2023-01-18T16:55:30.410Z,1.90
2023-01-18T16:57:58.967Z,1.80
2023-01-18T17:00:38.708Z,1.70
2023-01-18T17:03:07.066Z,1.50
2023-01-18T17:05:38.246Z,1.50
2023-01-18T17:08:15.921Z,1.40
2023-01-18T17:10:54.701Z,1.40
2023-01-18T17:13:24.152Z,1.40
2023-01-18T17:15:53.304Z,1.30
2023-01-18T17:18:25.623Z,1.30
2023-01-18T17:20:55.253Z,1.20
2023-01-18T17:23:25.649Z,1.20
2023-01-18T17:25:53.926Z,1.10
2023-01-18T17:28:21.965Z,1.10
2023-01-18T17:30:51.337Z,1.10
2023-01-18T17:33:22.764Z,1.00
2023-01-18T17:35:57.545Z,1.00
2023-01-18T17:41:01.727Z,0.90
2023-01-18T17:43:34.141Z,0.80
2023-01-18T17:46:04.680Z,0.70
2023-01-18T17:48:32.791Z,0.70
2023-01-18T17:51:00.867Z,0.60
2023-01-18T17:53:30.123Z,0.60
2023-01-18T17:55:58.203Z,0.60
2023-01-18T17:58:26.441Z,0.50
2023-01-18T18:00:55.556Z,0.50
2023-01-18T18:03:23.969Z,0.50
2023-01-18T18:05:58.176Z,0.50
2023-01-18T18:08:26.338Z,0.40
2023-01-18T18:10:56.378Z,0.40
2023-01-18T18:13:24.495Z,0.40
2023-01-18T18:15:53.246Z,0.40
2023-01-18T18:18:23.588Z,0.40
2023-01-18T18:20:57.119Z,0.40
2023-01-18T18:23:25.495Z,0.30
2023-01-18T18:25:54.861Z,0.30
2023-01-18T18:28:24.446Z,0.20
2023-01-18T18:30:52.928Z,0.30
2023-01-18T18:33:21.989Z,0.20
2023-01-18T18:35:50.839Z,0.20
2023-01-18T18:38:22.772Z,0.20
2023-01-18T18:40:51.398Z,0.20
2023-01-18T18:43:21.371Z,0.20
2023-01-18T18:45:49.367Z,0.20
2023-01-18T18:48:17.407Z,0.20
2023-01-18T18:50:46.696Z,0.20
2023-01-18T18:53:14.797Z,0.10
2023-01-18T18:55:43.887Z,0.10
2023-01-18T18:58:11.925Z,0.00
2023-01-18T19:00:41.341Z,0.00
2023-01-18T19:03:09.647Z,0.00
2023-01-18T19:05:37.815Z,0.00
2023-01-18T19:08:06.187Z,0.00
2023-01-18T19:10:34.358Z,-0.10
2023-01-18T19:13:04.825Z,-0.10
2023-01-18T19:15:33.106Z,-0.10
2023-01-18T19:18:05.294Z,-0.10
2023-01-18T19:20:33.514Z,-0.10
2023-01-18T19:23:02.117Z,-0.10
2023-01-18T19:25:31.118Z,-0.20
2023-01-18T19:28:01.433Z,-0.20
2023-01-18T19:30:31.593Z,-0.20
2023-01-18T19:33:02.791Z,-0.20
2023-01-18T19:35:31.240Z,-0.20
2023-01-18T19:38:00.855Z,-0.30
2023-01-18T19:40:28.899Z,-0.40
2023-01-18T19:42:59.572Z,-0.40
2023-01-18T19:45:29.750Z,-0.40
2023-01-18T19:47:59.578Z,-0.40
2023-01-18T19:50:30.775Z,-0.40
2023-01-18T19:53:01.110Z,-0.40
2023-01-18T19:55:29.253Z,-0.40
2023-01-18T19:58:01.653Z,-0.40
2023-01-18T20:00:30.355Z,-0.40
2023-01-18T20:03:00.105Z,-0.50
2023-01-18T20:05:31.389Z,-0.50
2023-01-18T20:07:59.500Z,-0.50
2023-01-18T20:10:27.606Z,-0.50
2023-01-18T20:12:56.449Z,-0.60
2023-01-18T20:15:24.562Z,-0.50
2023-01-18T20:17:55.000Z,-0.60
2023-01-18T20:20:31.767Z,-0.60
2023-01-18T20:23:04.205Z,-0.60
2023-01-18T20:25:33.279Z,-0.60
2023-01-18T20:28:01.614Z,-0.60
2023-01-18T20:30:29.772Z,-0.60
2023-01-18T20:32:58.432Z,-0.60
2023-01-18T20:35:27.570Z,-0.60
2023-01-18T20:37:56.008Z,-0.70
2023-01-18T20:40:25.521Z,-0.70
2023-01-18T20:42:54.125Z,-0.70
2023-01-18T20:45:22.287Z,-0.80
2023-01-18T20:47:50.468Z,-0.80
2023-01-18T20:50:18.965Z,-0.80
2023-01-18T20:52:47.210Z,-0.80
2023-01-18T20:55:18.785Z,-0.80
2023-01-18T20:57:50.966Z,-0.80
2023-01-18T21:00:20.342Z,-0.80
2023-01-18T21:02:52.147Z,-0.70
2023-01-18T21:05:22.700Z,-0.80
2023-01-18T21:07:50.675Z,-0.80
2023-01-18T21:10:19.127Z,-0.90
2023-01-18T21:12:50.344Z,-0.80
2023-01-18T21:15:18.607Z,-0.80
2023-01-18T21:17:49.027Z,-0.90
2023-01-18T21:20:18.611Z,-0.80
2023-01-18T21:22:47.171Z,-0.80
2023-01-18T21:25:15.925Z,-0.90
2023-01-18T21:27:44.161Z,-1.00
2023-01-18T21:30:16.715Z,-1.00
2023-01-18T21:32:47.913Z,-1.00
2023-01-18T21:35:16.354Z,-1.00
2023-01-18T21:37:44.347Z,-1.00
2023-01-18T21:40:13.404Z,-1.00
2023-01-18T21:42:59.075Z,-1.00
2023-01-18T21:45:46.398Z,-1.00
2023-01-18T21:48:14.438Z,-0.90
2023-01-18T21:51:00.047Z,-0.90
2023-01-18T21:53:45.435Z,-1.00
2023-01-18T21:56:13.748Z,-1.00
2023-01-18T21:58:54.532Z,-1.00
2023-01-18T22:01:26.496Z,-0.90
2023-01-18T22:04:13.098Z,-0.90
2023-01-18T22:06:44.392Z,-0.90
2023-01-18T22:09:12.674Z,-0.90
2023-01-18T22:11:43.147Z,-0.90
2023-01-18T22:14:12.095Z,-0.90
2023-01-18T22:16:41.607Z,-0.90
2023-01-18T22:19:11.281Z,-0.90
2023-01-18T22:21:43.499Z,-1.00
2023-01-18T22:24:13.138Z,-1.00
2023-01-18T22:26:42.215Z,-1.00
2023-01-18T22:29:10.731Z,-1.00
2023-01-18T22:31:39.387Z,-1.00
2023-01-18T22:34:09.128Z,-1.00
2023-01-18T22:36:37.143Z,-1.00
2023-01-18T22:39:05.259Z,-1.00
2023-01-18T22:41:36.156Z,-1.00
2023-01-18T22:44:16.145Z,-1.00
2023-01-18T22:46:44.795Z,-1.00
2023-01-18T22:49:14.473Z,-1.00
2023-01-18T22:51:42.586Z,-1.00
2023-01-18T22:54:10.760Z,-1.00
2023-01-18T22:56:38.855Z,-0.90
2023-01-18T22:59:07.778Z,-0.90
2023-01-18T23:01:36.224Z,-0.90
2023-01-18T23:04:05.333Z,-0.90
2023-01-18T23:06:42.181Z,-0.90
2023-01-18T23:09:11.180Z,-0.90
2023-01-18T23:11:40.753Z,-0.90
2023-01-18T23:14:26.764Z,-0.90
2023-01-18T23:17:12.215Z,-0.90
2023-01-18T23:19:40.280Z,-0.90
2023-01-18T23:22:10.588Z,-0.90
2023-01-18T23:24:39.219Z,-0.90
2023-01-18T23:27:11.980Z,-0.90
2023-01-18T23:29:40.221Z,-0.90
2023-01-18T23:32:08.521Z,-0.90
2023-01-18T23:34:36.538Z,-0.90
2023-01-18T23:37:04.417Z,-0.90
2023-01-18T23:39:51.125Z,-0.90
2023-01-18T23:42:36.594Z,-0.90
2023-01-18T23:45:22.703Z,-0.90
2023-01-18T23:48:08.241Z,-0.90
2023-01-18T23:50:53.939Z,-0.90
2023-01-18T23:53:39.719Z,-1.00
2023-01-18T23:56:09.303Z,-1.00
2023-01-18T23:58:39.298Z,-1.00
